sensor_id;sensor_type;location;lat;lon;timestamp;temperature;humidity
75821;DHT22;64454;51.984;9.838;2023-02-28T00:01:29;4.20;1.00
75821;DHT22;64454;51.984;9.838;2023-02-28T00:03:57;4.20;1.00
75821;DHT22;64454;51.984;9.838;2023-02-28T00:06:24;4.20;1.00
75821;DHT22;64454;51.984;9.838;2023-02-28T00:08:51;4.20;1.00
75821;DHT22;64454;51.984;9.838;2023-02-28T00:11:18;4.10;1.00
75821;DHT22;64454;51.984;9.838;2023-02-28T00:13:46;4.00;1.00
75821;DHT22;64454;51.984;9.838;2023-02-28T00:16:17;3.90;1.00
75821;DHT22;64454;51.984;9.838;2023-02-28T00:18:46;3.90;1.00
75821;DHT22;64454;51.984;9.838;2023-02-28T00:21:13;3.70;1.00
75821;DHT22;64454;51.984;9.838;2023-02-28T00:23:41;3.60;1.00
75821;DHT22;64454;51.984;9.838;2023-02-28T00:26:07;3.60;1.00
75821;DHT22;64454;51.984;9.838;2023-02-28T00:28:34;3.60;1.00
75821;DHT22;64454;51.984;9.838;2023-02-28T00:31:01;3.60;1.00
75821;DHT22;64454;51.984;9.838;2023-02-28T00:33:29;3.60;1.00
75821;DHT22;64454;51.984;9.838;2023-02-28T00:36:04;3.60;1.00
75821;DHT22;64454;51.984;9.838;2023-02-28T00:38:32;3.70;1.00
75821;DHT22;64454;51.984;9.838;2023-02-28T00:40:59;3.70;1.00
75821;DHT22;64454;51.984;9.838;2023-02-28T00:43:30;3.70;1.00
75821;DHT22;64454;51.984;9.838;2023-02-28T00:45:58;3.70;1.00
75821;DHT22;64454;51.984;9.838;2023-02-28T00:48:24;3.60;1.00
75821;DHT22;64454;51.984;9.838;2023-02-28T00:50:52;3.70;1.00
75821;DHT22;64454;51.984;9.838;2023-02-28T00:53:20;3.70;1.00
75821;DHT22;64454;51.984;9.838;2023-02-28T00:55:47;3.70;1.00
75821;DHT22;64454;51.984;9.838;2023-02-28T00:58:14;3.80;1.00
75821;DHT22;64454;51.984;9.838;2023-02-28T01:00:41;3.80;1.00
75821;DHT22;64454;51.984;9.838;2023-02-28T01:03:08;3.80;1.00
75821;DHT22;64454;51.984;9.838;2023-02-28T01:05:35;3.80;1.00
75821;DHT22;64454;51.984;9.838;2023-02-28T01:08:03;3.70;1.00
75821;DHT22;64454;51.984;9.838;2023-02-28T01:10:31;3.70;1.00
75821;DHT22;64454;51.984;9.838;2023-02-28T01:12:58;3.70;1.00
75821;DHT22;64454;51.984;9.838;2023-02-28T01:15:25;3.70;1.00
75821;DHT22;64454;51.984;9.838;2023-02-28T01:17:51;3.60;1.00
75821;DHT22;64454;51.984;9.838;2023-02-28T01:20:18;3.60;1.00
75821;DHT22;64454;51.984;9.838;2023-02-28T01:22:45;3.60;1.00
75821;DHT22;64454;51.984;9.838;2023-02-28T01:25:14;3.50;1.00
75821;DHT22;64454;51.984;9.838;2023-02-28T01:27:41;3.50;1.00
75821;DHT22;64454;51.984;9.838;2023-02-28T01:30:09;3.50;1.00
75821;DHT22;64454;51.984;9.838;2023-02-28T01:32:36;3.50;1.00
75821;DHT22;64454;51.984;9.838;2023-02-28T01:35:03;3.40;1.00
75821;DHT22;64454;51.984;9.838;2023-02-28T01:37:31;3.40;1.00
75821;DHT22;64454;51.984;9.838;2023-02-28T01:39:58;3.40;1.00
75821;DHT22;64454;51.984;9.838;2023-02-28T01:42:26;3.40;1.00
75821;DHT22;64454;51.984;9.838;2023-02-28T01:45:03;3.30;1.00
75821;DHT22;64454;51.984;9.838;2023-02-28T01:47:43;3.20;1.00
75821;DHT22;64454;51.984;9.838;2023-02-28T01:50:14;3.20;1.00
75821;DHT22;64454;51.984;9.838;2023-02-28T01:52:45;3.20;1.00
75821;DHT22;64454;51.984;9.838;2023-02-28T01:55:15;3.10;1.00
75821;DHT22;64454;51.984;9.838;2023-02-28T01:57:48;3.10;1.00
75821;DHT22;64454;51.984;9.838;2023-02-28T02:00:22;3.20;1.00
75821;DHT22;64454;51.984;9.838;2023-02-28T02:02:55;3.20;1.00
75821;DHT22;64454;51.984;9.838;2023-02-28T02:05:26;3.20;1.00
75821;DHT22;64454;51.984;9.838;2023-02-28T02:07:58;3.20;1.00
75821;DHT22;64454;51.984;9.838;2023-02-28T02:10:32;3.10;1.00
75821;DHT22;64454;51.984;9.838;2023-02-28T02:13:22;3.00;1.00
75821;DHT22;64454;51.984;9.838;2023-02-28T02:16:06;3.00;1.00
75821;DHT22;64454;51.984;9.838;2023-02-28T02:18:47;2.90;1.00
75821;DHT22;64454;51.984;9.838;2023-02-28T02:27:56;2.80;1.00
75821;DHT22;64454;51.984;9.838;2023-02-28T02:30:46;2.80;1.00
75821;DHT22;64454;51.984;9.838;2023-02-28T02:34:18;2.80;1.00
75821;DHT22;64454;51.984;9.838;2023-02-28T02:37:03;2.80;1.00
75821;DHT22;64454;51.984;9.838;2023-02-28T02:39:43;2.80;1.00
75821;DHT22;64454;51.984;9.838;2023-02-28T02:42:20;2.80;1.00
75821;DHT22;64454;51.984;9.838;2023-02-28T02:44:57;2.80;1.00
75821;DHT22;64454;51.984;9.838;2023-02-28T02:47:29;2.90;1.00
75821;DHT22;64454;51.984;9.838;2023-02-28T02:50:02;3.00;1.00
75821;DHT22;64454;51.984;9.838;2023-02-28T02:52:37;3.00;1.00
75821;DHT22;64454;51.984;9.838;2023-02-28T02:55:09;3.00;1.00
75821;DHT22;64454;51.984;9.838;2023-02-28T02:57:42;3.00;1.00
75821;DHT22;64454;51.984;9.838;2023-02-28T03:00:15;3.00;1.00
75821;DHT22;64454;51.984;9.838;2023-02-28T03:02:45;2.90;1.00
75821;DHT22;64454;51.984;9.838;2023-02-28T03:05:19;2.80;1.00
75821;DHT22;64454;51.984;9.838;2023-02-28T03:07:50;2.90;1.00
75821;DHT22;64454;51.984;9.838;2023-02-28T03:10:29;3.00;1.00
75821;DHT22;64454;51.984;9.838;2023-02-28T03:13:12;2.90;1.00
75821;DHT22;64454;51.984;9.838;2023-02-28T03:16:00;3.00;1.00
75821;DHT22;64454;51.984;9.838;2023-02-28T03:18:45;3.00;1.00
75821;DHT22;64454;51.984;9.838;2023-02-28T03:21:28;3.00;1.00
75821;DHT22;64454;51.984;9.838;2023-02-28T03:24:04;2.90;1.00
75821;DHT22;64454;51.984;9.838;2023-02-28T03:26:40;2.90;1.00
75821;DHT22;64454;51.984;9.838;2023-02-28T03:29:17;2.90;1.00
75821;DHT22;64454;51.984;9.838;2023-02-28T03:31:50;3.00;1.00
75821;DHT22;64454;51.984;9.838;2023-02-28T03:34:26;3.00;1.00
75821;DHT22;64454;51.984;9.838;2023-02-28T03:37:00;3.10;1.00
75821;DHT22;64454;51.984;9.838;2023-02-28T03:39:37;3.10;1.00
75821;DHT22;64454;51.984;9.838;2023-02-28T03:42:09;3.10;1.00
75821;DHT22;64454;51.984;9.838;2023-02-28T03:44:42;3.20;1.00
75821;DHT22;64454;51.984;9.838;2023-02-28T03:47:14;3.20;1.00
75821;DHT22;64454;51.984;9.838;2023-02-28T03:49:47;3.20;1.00
75821;DHT22;64454;51.984;9.838;2023-02-28T03:52:23;3.20;1.00
75821;DHT22;64454;51.984;9.838;2023-02-28T03:54:56;3.20;1.00
75821;DHT22;64454;51.984;9.838;2023-02-28T03:57:34;3.20;1.00
75821;DHT22;64454;51.984;9.838;2023-02-28T04:00:10;3.20;1.00
75821;DHT22;64454;51.984;9.838;2023-02-28T04:02:40;3.20;1.00
75821;DHT22;64454;51.984;9.838;2023-02-28T04:05:08;3.10;1.00
75821;DHT22;64454;51.984;9.838;2023-02-28T04:07:36;3.10;1.00
75821;DHT22;64454;51.984;9.838;2023-02-28T04:10:05;3.10;1.00
75821;DHT22;64454;51.984;9.838;2023-02-28T04:12:32;3.10;1.00
75821;DHT22;64454;51.984;9.838;2023-02-28T04:14:59;3.00;1.00
75821;DHT22;64454;51.984;9.838;2023-02-28T04:17:26;3.00;1.00
75821;DHT22;64454;51.984;9.838;2023-02-28T04:19:53;2.90;1.00
75821;DHT22;64454;51.984;9.838;2023-02-28T04:22:22;2.90;1.00
75821;DHT22;64454;51.984;9.838;2023-02-28T04:24:52;3.00;1.00
75821;DHT22;64454;51.984;9.838;2023-02-28T04:27:20;3.00;1.00
75821;DHT22;64454;51.984;9.838;2023-02-28T04:29:47;3.00;1.00
75821;DHT22;64454;51.984;9.838;2023-02-28T04:32:14;3.00;1.00
75821;DHT22;64454;51.984;9.838;2023-02-28T04:34:41;3.00;1.00
75821;DHT22;64454;51.984;9.838;2023-02-28T04:37:07;3.10;1.00
75821;DHT22;64454;51.984;9.838;2023-02-28T04:39:36;3.10;1.00
75821;DHT22;64454;51.984;9.838;2023-02-28T04:42:04;3.10;1.00
75821;DHT22;64454;51.984;9.838;2023-02-28T04:44:31;3.00;1.00
75821;DHT22;64454;51.984;9.838;2023-02-28T04:46:58;3.00;1.00
75821;DHT22;64454;51.984;9.838;2023-02-28T04:49:25;2.90;1.00
75821;DHT22;64454;51.984;9.838;2023-02-28T04:51:52;2.80;1.00
75821;DHT22;64454;51.984;9.838;2023-02-28T04:54:20;2.80;1.00
75821;DHT22;64454;51.984;9.838;2023-02-28T04:56:47;2.70;1.00
75821;DHT22;64454;51.984;9.838;2023-02-28T04:59:17;2.70;1.00
75821;DHT22;64454;51.984;9.838;2023-02-28T05:01:46;2.70;1.00
75821;DHT22;64454;51.984;9.838;2023-02-28T05:04:16;2.70;1.00
75821;DHT22;64454;51.984;9.838;2023-02-28T05:06:45;2.80;1.00
75821;DHT22;64454;51.984;9.838;2023-02-28T05:09:11;2.70;1.00
75821;DHT22;64454;51.984;9.838;2023-02-28T05:11:39;2.60;1.00
75821;DHT22;64454;51.984;9.838;2023-02-28T05:14:10;2.60;1.00
75821;DHT22;64454;51.984;9.838;2023-02-28T05:16:40;2.70;1.00
75821;DHT22;64454;51.984;9.838;2023-02-28T05:19:07;2.70;1.00
75821;DHT22;64454;51.984;9.838;2023-02-28T05:21:35;2.70;1.00
75821;DHT22;64454;51.984;9.838;2023-02-28T05:24:06;2.70;1.00
75821;DHT22;64454;51.984;9.838;2023-02-28T05:26:35;2.70;1.00
75821;DHT22;64454;51.984;9.838;2023-02-28T05:29:04;2.80;1.00
75821;DHT22;64454;51.984;9.838;2023-02-28T05:31:31;2.80;1.00
75821;DHT22;64454;51.984;9.838;2023-02-28T05:33:59;2.70;1.00
75821;DHT22;64454;51.984;9.838;2023-02-28T05:36:26;2.70;1.00
75821;DHT22;64454;51.984;9.838;2023-02-28T05:38:53;2.70;1.00
75821;DHT22;64454;51.984;9.838;2023-02-28T05:41:20;2.60;1.00
75821;DHT22;64454;51.984;9.838;2023-02-28T05:43:48;2.60;1.00
75821;DHT22;64454;51.984;9.838;2023-02-28T05:46:15;2.40;1.00
75821;DHT22;64454;51.984;9.838;2023-02-28T05:48:45;2.30;1.00
75821;DHT22;64454;51.984;9.838;2023-02-28T05:51:15;2.20;1.00
75821;DHT22;64454;51.984;9.838;2023-02-28T05:53:42;2.10;1.00
75821;DHT22;64454;51.984;9.838;2023-02-28T05:56:09;2.10;1.00
75821;DHT22;64454;51.984;9.838;2023-02-28T05:58:36;2.10;1.00
75821;DHT22;64454;51.984;9.838;2023-02-28T06:01:22;2.10;1.00
75821;DHT22;64454;51.984;9.838;2023-02-28T06:03:51;2.10;1.00
75821;DHT22;64454;51.984;9.838;2023-02-28T06:06:19;2.20;1.00
75821;DHT22;64454;51.984;9.838;2023-02-28T06:08:46;2.10;1.00
75821;DHT22;64454;51.984;9.838;2023-02-28T06:11:13;2.10;1.00
75821;DHT22;64454;51.984;9.838;2023-02-28T06:13:40;2.10;1.00
75821;DHT22;64454;51.984;9.838;2023-02-28T06:16:08;2.00;1.00
75821;DHT22;64454;51.984;9.838;2023-02-28T06:18:38;2.00;1.00
75821;DHT22;64454;51.984;9.838;2023-02-28T06:21:05;2.00;1.00
75821;DHT22;64454;51.984;9.838;2023-02-28T06:23:35;2.00;1.00
75821;DHT22;64454;51.984;9.838;2023-02-28T06:26:02;2.00;1.00
75821;DHT22;64454;51.984;9.838;2023-02-28T06:28:29;2.00;1.00
75821;DHT22;64454;51.984;9.838;2023-02-28T06:30:56;1.80;1.00
75821;DHT22;64454;51.984;9.838;2023-02-28T06:33:23;1.80;1.00
75821;DHT22;64454;51.984;9.838;2023-02-28T06:35:50;1.70;1.00
75821;DHT22;64454;51.984;9.838;2023-02-28T06:38:17;1.80;1.00
75821;DHT22;64454;51.984;9.838;2023-02-28T06:40:53;1.80;1.00
75821;DHT22;64454;51.984;9.838;2023-02-28T06:43:20;1.90;1.00
75821;DHT22;64454;51.984;9.838;2023-02-28T06:45:47;2.00;1.00
75821;DHT22;64454;51.984;9.838;2023-02-28T06:48:14;2.10;1.00
75821;DHT22;64454;51.984;9.838;2023-02-28T06:50:41;2.10;1.00
75821;DHT22;64454;51.984;9.838;2023-02-28T06:53:07;2.20;1.00
75821;DHT22;64454;51.984;9.838;2023-02-28T06:55:34;2.30;1.00
75821;DHT22;64454;51.984;9.838;2023-02-28T06:58:05;2.40;1.00
75821;DHT22;64454;51.984;9.838;2023-02-28T07:00:40;2.40;1.00
75821;DHT22;64454;51.984;9.838;2023-02-28T07:03:07;2.60;1.00
75821;DHT22;64454;51.984;9.838;2023-02-28T07:05:34;2.70;1.00
75821;DHT22;64454;51.984;9.838;2023-02-28T07:08:02;2.70;1.00
75821;DHT22;64454;51.984;9.838;2023-02-28T07:10:28;2.80;1.00
75821;DHT22;64454;51.984;9.838;2023-02-28T07:12:55;2.90;1.00
75821;DHT22;64454;51.984;9.838;2023-02-28T07:15:23;2.90;1.00
75821;DHT22;64454;51.984;9.838;2023-02-28T07:17:51;3.00;1.00
75821;DHT22;64454;51.984;9.838;2023-02-28T07:20:17;3.00;1.00
75821;DHT22;64454;51.984;9.838;2023-02-28T07:22:44;3.10;1.00
75821;DHT22;64454;51.984;9.838;2023-02-28T07:25:11;3.10;1.00
75821;DHT22;64454;51.984;9.838;2023-02-28T07:27:38;3.20;1.00
75821;DHT22;64454;51.984;9.838;2023-02-28T07:30:06;3.30;1.00
75821;DHT22;64454;51.984;9.838;2023-02-28T07:32:35;3.30;1.00
75821;DHT22;64454;51.984;9.838;2023-02-28T07:35:03;3.40;1.00
75821;DHT22;64454;51.984;9.838;2023-02-28T07:37:30;3.50;1.00
75821;DHT22;64454;51.984;9.838;2023-02-28T07:40:02;3.50;1.00
75821;DHT22;64454;51.984;9.838;2023-02-28T07:42:31;3.60;1.00
75821;DHT22;64454;51.984;9.838;2023-02-28T07:44:58;3.60;1.00
75821;DHT22;64454;51.984;9.838;2023-02-28T07:47:25;3.70;1.00
75821;DHT22;64454;51.984;9.838;2023-02-28T07:49:53;3.90;1.00
75821;DHT22;64454;51.984;9.838;2023-02-28T07:52:20;3.90;1.00
75821;DHT22;64454;51.984;9.838;2023-02-28T07:54:48;4.10;1.00
75821;DHT22;64454;51.984;9.838;2023-02-28T07:57:15;4.00;1.00
75821;DHT22;64454;51.984;9.838;2023-02-28T07:59:42;4.10;1.00
75821;DHT22;64454;51.984;9.838;2023-02-28T08:02:11;4.40;1.00
75821;DHT22;64454;51.984;9.838;2023-02-28T08:04:40;4.40;1.00
75821;DHT22;64454;51.984;9.838;2023-02-28T08:07:08;4.50;1.00
75821;DHT22;64454;51.984;9.838;2023-02-28T08:09:38;4.50;1.00
75821;DHT22;64454;51.984;9.838;2023-02-28T08:12:06;4.50;1.00
75821;DHT22;64454;51.984;9.838;2023-02-28T08:14:34;4.70;1.00
75821;DHT22;64454;51.984;9.838;2023-02-28T08:17:01;4.80;1.00
75821;DHT22;64454;51.984;9.838;2023-02-28T08:19:29;5.00;1.00
75821;DHT22;64454;51.984;9.838;2023-02-28T08:21:56;5.10;1.00
75821;DHT22;64454;51.984;9.838;2023-02-28T08:24:24;5.10;1.00
75821;DHT22;64454;51.984;9.838;2023-02-28T08:26:51;5.20;1.00
75821;DHT22;64454;51.984;9.838;2023-02-28T08:29:19;5.20;1.00
75821;DHT22;64454;51.984;9.838;2023-02-28T08:31:46;5.30;1.00
75821;DHT22;64454;51.984;9.838;2023-02-28T08:34:15;5.30;1.00
75821;DHT22;64454;51.984;9.838;2023-02-28T08:36:44;5.30;1.00
75821;DHT22;64454;51.984;9.838;2023-02-28T08:39:11;5.20;1.00
75821;DHT22;64454;51.984;9.838;2023-02-28T08:41:41;5.40;1.00
75821;DHT22;64454;51.984;9.838;2023-02-28T08:44:09;5.60;1.00
75821;DHT22;64454;51.984;9.838;2023-02-28T08:46:36;5.50;1.00
75821;DHT22;64454;51.984;9.838;2023-02-28T08:49:04;5.50;1.00
75821;DHT22;64454;51.984;9.838;2023-02-28T08:51:32;5.60;1.00
75821;DHT22;64454;51.984;9.838;2023-02-28T08:54:00;5.70;1.00
75821;DHT22;64454;51.984;9.838;2023-02-28T08:56:28;5.60;1.00
75821;DHT22;64454;51.984;9.838;2023-02-28T08:58:56;5.60;1.00
75821;DHT22;64454;51.984;9.838;2023-02-28T09:01:26;5.60;1.00
75821;DHT22;64454;51.984;9.838;2023-02-28T09:03:54;5.50;1.00
75821;DHT22;64454;51.984;9.838;2023-02-28T09:06:24;5.30;1.00
75821;DHT22;64454;51.984;9.838;2023-02-28T09:08:52;5.30;1.00
75821;DHT22;64454;51.984;9.838;2023-02-28T09:11:20;5.30;1.00
75821;DHT22;64454;51.984;9.838;2023-02-28T09:13:47;5.40;1.00
75821;DHT22;64454;51.984;9.838;2023-02-28T09:16:16;5.40;1.00
75821;DHT22;64454;51.984;9.838;2023-02-28T09:18:44;5.40;1.00
75821;DHT22;64454;51.984;9.838;2023-02-28T09:21:15;5.60;1.00
75821;DHT22;64454;51.984;9.838;2023-02-28T09:23:45;5.70;1.00
75821;DHT22;64454;51.984;9.838;2023-02-28T09:26:14;5.80;1.00
75821;DHT22;64454;51.984;9.838;2023-02-28T09:28:43;6.00;1.00
75821;DHT22;64454;51.984;9.838;2023-02-28T09:31:15;6.10;1.00
75821;DHT22;64454;51.984;9.838;2023-02-28T09:33:46;6.20;1.00
75821;DHT22;64454;51.984;9.838;2023-02-28T09:36:12;6.10;1.00
75821;DHT22;64454;51.984;9.838;2023-02-28T09:38:39;6.10;1.00
75821;DHT22;64454;51.984;9.838;2023-02-28T09:41:12;6.00;1.00
75821;DHT22;64454;51.984;9.838;2023-02-28T09:43:43;6.00;1.00
75821;DHT22;64454;51.984;9.838;2023-02-28T09:46:27;6.20;1.00
75821;DHT22;64454;51.984;9.838;2023-02-28T09:48:58;6.70;1.00
75821;DHT22;64454;51.984;9.838;2023-02-28T09:51:35;8.30;1.00
75821;DHT22;64454;51.984;9.838;2023-02-28T09:54:15;12.20;1.00
75821;DHT22;64454;51.984;9.838;2023-02-28T09:56:48;16.80;1.00
75821;DHT22;64454;51.984;9.838;2023-02-28T09:59:35;20.40;1.00
75821;DHT22;64454;51.984;9.838;2023-02-28T10:02:21;24.00;1.00
75821;DHT22;64454;51.984;9.838;2023-02-28T10:05:09;26.20;1.00
75821;DHT22;64454;51.984;9.838;2023-02-28T10:07:52;28.00;1.00
75821;DHT22;64454;51.984;9.838;2023-02-28T10:10:34;29.20;1.00
75821;DHT22;64454;51.984;9.838;2023-02-28T10:13:15;30.70;1.00
75821;DHT22;64454;51.984;9.838;2023-02-28T10:15:51;31.20;1.00
75821;DHT22;64454;51.984;9.838;2023-02-28T10:18:28;30.90;1.00
75821;DHT22;64454;51.984;9.838;2023-02-28T10:21:03;31.50;1.00
75821;DHT22;64454;51.984;9.838;2023-02-28T10:23:34;32.50;1.00
75821;DHT22;64454;51.984;9.838;2023-02-28T10:26:11;32.70;1.00
75821;DHT22;64454;51.984;9.838;2023-02-28T10:28:41;32.30;1.00
75821;DHT22;64454;51.984;9.838;2023-02-28T10:31:11;33.30;1.00
75821;DHT22;64454;51.984;9.838;2023-02-28T10:33:44;34.50;1.00
75821;DHT22;64454;51.984;9.838;2023-02-28T10:36:14;35.10;1.00
75821;DHT22;64454;51.984;9.838;2023-02-28T10:38:43;34.40;1.00
75821;DHT22;64454;51.984;9.838;2023-02-28T10:41:13;34.80;1.00
75821;DHT22;64454;51.984;9.838;2023-02-28T10:43:43;34.40;1.00
75821;DHT22;64454;51.984;9.838;2023-02-28T10:46:14;33.90;1.00
75821;DHT22;64454;51.984;9.838;2023-02-28T10:49:04;33.70;1.00
75821;DHT22;64454;51.984;9.838;2023-02-28T10:51:39;33.50;1.00
75821;DHT22;64454;51.984;9.838;2023-02-28T10:54:16;33.00;1.00
75821;DHT22;64454;51.984;9.838;2023-02-28T10:57:06;32.40;1.00
75821;DHT22;64454;51.984;9.838;2023-02-28T10:59:35;31.30;1.00
75821;DHT22;64454;51.984;9.838;2023-02-28T11:02:30;30.60;1.00
75821;DHT22;64454;51.984;9.838;2023-02-28T11:05:00;29.50;1.00
75821;DHT22;64454;51.984;9.838;2023-02-28T11:07:27;27.30;1.00
75821;DHT22;64454;51.984;9.838;2023-02-28T11:09:55;25.80;1.00
75821;DHT22;64454;51.984;9.838;2023-02-28T11:12:26;24.60;1.00
75821;DHT22;64454;51.984;9.838;2023-02-28T11:15:14;23.00;1.00
75821;DHT22;64454;51.984;9.838;2023-02-28T11:17:53;21.90;1.00
75821;DHT22;64454;51.984;9.838;2023-02-28T11:20:26;21.20;1.00
75821;DHT22;64454;51.984;9.838;2023-02-28T11:22:55;20.20;1.00
75821;DHT22;64454;51.984;9.838;2023-02-28T11:25:26;19.10;1.00
75821;DHT22;64454;51.984;9.838;2023-02-28T11:27:56;18.10;1.00
75821;DHT22;64454;51.984;9.838;2023-02-28T11:30:30;16.90;1.00
75821;DHT22;64454;51.984;9.838;2023-02-28T11:33:22;16.00;1.00
75821;DHT22;64454;51.984;9.838;2023-02-28T11:35:52;15.40;1.00
75821;DHT22;64454;51.984;9.838;2023-02-28T11:38:24;15.00;1.00
75821;DHT22;64454;51.984;9.838;2023-02-28T11:41:05;14.60;1.00
75821;DHT22;64454;51.984;9.838;2023-02-28T11:44:05;14.00;1.00
75821;DHT22;64454;51.984;9.838;2023-02-28T11:46:47;13.70;1.00
75821;DHT22;64454;51.984;9.838;2023-02-28T11:49:33;14.00;1.00
75821;DHT22;64454;51.984;9.838;2023-02-28T11:52:19;14.30;1.00
75821;DHT22;64454;51.984;9.838;2023-02-28T11:55:00;14.10;1.00
75821;DHT22;64454;51.984;9.838;2023-02-28T11:57:45;13.70;1.00
75821;DHT22;64454;51.984;9.838;2023-02-28T12:00:33;13.50;1.00
75821;DHT22;64454;51.984;9.838;2023-02-28T12:03:22;13.40;1.00
75821;DHT22;64454;51.984;9.838;2023-02-28T12:06:02;13.30;1.00
75821;DHT22;64454;51.984;9.838;2023-02-28T12:08:52;13.50;1.00
75821;DHT22;64454;51.984;9.838;2023-02-28T12:11:35;13.50;1.00
75821;DHT22;64454;51.984;9.838;2023-02-28T12:14:25;13.70;1.00
75821;DHT22;64454;51.984;9.838;2023-02-28T12:17:18;13.90;1.00
75821;DHT22;64454;51.984;9.838;2023-02-28T12:20:02;13.90;1.00
75821;DHT22;64454;51.984;9.838;2023-02-28T12:22:43;14.00;1.00
75821;DHT22;64454;51.984;9.838;2023-02-28T12:25:38;14.10;1.00
75821;DHT22;64454;51.984;9.838;2023-02-28T12:28:18;14.40;1.00
75821;DHT22;64454;51.984;9.838;2023-02-28T12:30:53;14.50;1.00
75821;DHT22;64454;51.984;9.838;2023-02-28T12:33:27;14.50;1.00
75821;DHT22;64454;51.984;9.838;2023-02-28T12:36:02;14.30;1.00
75821;DHT22;64454;51.984;9.838;2023-02-28T12:38:38;14.30;1.00
75821;DHT22;64454;51.984;9.838;2023-02-28T12:41:13;14.70;1.00
75821;DHT22;64454;51.984;9.838;2023-02-28T12:43:45;15.20;1.00
75821;DHT22;64454;51.984;9.838;2023-02-28T12:46:19;16.20;1.00
75821;DHT22;64454;51.984;9.838;2023-02-28T12:48:52;17.50;1.00
75821;DHT22;64454;51.984;9.838;2023-02-28T12:51:22;19.10;1.00
75821;DHT22;64454;51.984;9.838;2023-02-28T12:54:02;20.80;1.00
75821;DHT22;64454;51.984;9.838;2023-02-28T12:56:41;22.60;1.00
75821;DHT22;64454;51.984;9.838;2023-02-28T12:59:22;23.50;1.00
75821;DHT22;64454;51.984;9.838;2023-02-28T13:02:02;24.90;1.00
75821;DHT22;64454;51.984;9.838;2023-02-28T13:05:02;24.80;1.00
75821;DHT22;64454;51.984;9.838;2023-02-28T13:08:00;24.10;1.00
75821;DHT22;64454;51.984;9.838;2023-02-28T13:10:40;24.00;1.00
75821;DHT22;64454;51.984;9.838;2023-02-28T13:13:16;22.70;1.00
75821;DHT22;64454;51.984;9.838;2023-02-28T13:16:01;22.80;1.00
75821;DHT22;64454;51.984;9.838;2023-02-28T13:18:32;24.30;1.00
75821;DHT22;64454;51.984;9.838;2023-02-28T13:21:04;25.70;1.00
75821;DHT22;64454;51.984;9.838;2023-02-28T13:23:58;26.60;1.00
75821;DHT22;64454;51.984;9.838;2023-02-28T13:29:53;28.30;1.00
75821;DHT22;64454;51.984;9.838;2023-02-28T13:32:41;29.00;1.00
75821;DHT22;64454;51.984;9.838;2023-02-28T13:35:36;28.40;1.00
75821;DHT22;64454;51.984;9.838;2023-02-28T13:38:22;28.10;1.00
75821;DHT22;64454;51.984;9.838;2023-02-28T13:40:51;27.20;1.00
75821;DHT22;64454;51.984;9.838;2023-02-28T13:43:18;27.30;1.00
75821;DHT22;64454;51.984;9.838;2023-02-28T13:46:09;27.30;1.00
75821;DHT22;64454;51.984;9.838;2023-02-28T13:48:38;27.40;1.00
75821;DHT22;64454;51.984;9.838;2023-02-28T13:51:38;27.00;1.00
75821;DHT22;64454;51.984;9.838;2023-02-28T13:54:19;28.00;1.00
75821;DHT22;64454;51.984;9.838;2023-02-28T13:57:05;28.90;1.00
75821;DHT22;64454;51.984;9.838;2023-02-28T13:59:46;30.00;1.00
75821;DHT22;64454;51.984;9.838;2023-02-28T14:02:37;30.30;1.00
75821;DHT22;64454;51.984;9.838;2023-02-28T14:05:15;30.40;1.00
75821;DHT22;64454;51.984;9.838;2023-02-28T14:07:46;29.60;1.00
75821;DHT22;64454;51.984;9.838;2023-02-28T14:10:23;29.40;1.00
75821;DHT22;64454;51.984;9.838;2023-02-28T14:13:02;29.10;1.00
75821;DHT22;64454;51.984;9.838;2023-02-28T14:15:44;29.10;1.00
75821;DHT22;64454;51.984;9.838;2023-02-28T14:18:19;29.60;1.00
75821;DHT22;64454;51.984;9.838;2023-02-28T14:20:50;29.60;1.00
75821;DHT22;64454;51.984;9.838;2023-02-28T14:23:32;29.10;1.00
75821;DHT22;64454;51.984;9.838;2023-02-28T14:26:14;28.80;1.00
75821;DHT22;64454;51.984;9.838;2023-02-28T14:29:07;28.30;1.00
75821;DHT22;64454;51.984;9.838;2023-02-28T14:31:57;26.40;1.00
75821;DHT22;64454;51.984;9.838;2023-02-28T14:34:37;23.60;1.00
75821;DHT22;64454;51.984;9.838;2023-02-28T14:37:15;21.50;1.00
75821;DHT22;64454;51.984;9.838;2023-02-28T14:39:46;19.80;1.00
75821;DHT22;64454;51.984;9.838;2023-02-28T14:42:28;17.50;1.00
75821;DHT22;64454;51.984;9.838;2023-02-28T14:44:56;15.90;1.00
75821;DHT22;64454;51.984;9.838;2023-02-28T14:47:25;14.80;1.00
75821;DHT22;64454;51.984;9.838;2023-02-28T14:49:57;14.00;1.00
75821;DHT22;64454;51.984;9.838;2023-02-28T14:52:26;13.40;1.00
75821;DHT22;64454;51.984;9.838;2023-02-28T14:54:56;12.60;1.00
75821;DHT22;64454;51.984;9.838;2023-02-28T14:57:27;12.00;1.00
75821;DHT22;64454;51.984;9.838;2023-02-28T15:00:01;11.80;1.00
75821;DHT22;64454;51.984;9.838;2023-02-28T15:02:36;11.60;1.00
75821;DHT22;64454;51.984;9.838;2023-02-28T15:05:21;11.10;1.00
75821;DHT22;64454;51.984;9.838;2023-02-28T15:08:05;10.80;1.00
75821;DHT22;64454;51.984;9.838;2023-02-28T15:10:38;10.50;1.00
75821;DHT22;64454;51.984;9.838;2023-02-28T15:13:08;10.40;1.00
75821;DHT22;64454;51.984;9.838;2023-02-28T15:15:43;10.50;1.00
75821;DHT22;64454;51.984;9.838;2023-02-28T15:18:23;10.70;1.00
75821;DHT22;64454;51.984;9.838;2023-02-28T15:20:55;11.90;1.00
75821;DHT22;64454;51.984;9.838;2023-02-28T15:23:25;13.20;1.00
75821;DHT22;64454;51.984;9.838;2023-02-28T15:25:53;13.70;1.00
75821;DHT22;64454;51.984;9.838;2023-02-28T15:28:22;14.40;1.00
75821;DHT22;64454;51.984;9.838;2023-02-28T15:30:53;15.50;1.00
75821;DHT22;64454;51.984;9.838;2023-02-28T15:33:24;16.20;1.00
75821;DHT22;64454;51.984;9.838;2023-02-28T15:36:05;17.30;1.00
75821;DHT22;64454;51.984;9.838;2023-02-28T15:38:37;17.80;1.00
75821;DHT22;64454;51.984;9.838;2023-02-28T15:41:04;18.30;1.00
75821;DHT22;64454;51.984;9.838;2023-02-28T15:43:36;19.10;1.00
75821;DHT22;64454;51.984;9.838;2023-02-28T15:46:06;19.60;1.00
75821;DHT22;64454;51.984;9.838;2023-02-28T15:48:37;19.90;1.00
75821;DHT22;64454;51.984;9.838;2023-02-28T15:51:17;18.80;1.00
75821;DHT22;64454;51.984;9.838;2023-02-28T15:53:48;19.20;1.00
75821;DHT22;64454;51.984;9.838;2023-02-28T15:56:23;19.30;1.00
75821;DHT22;64454;51.984;9.838;2023-02-28T15:58:53;18.60;1.00
75821;DHT22;64454;51.984;9.838;2023-02-28T16:01:25;17.50;1.00
75821;DHT22;64454;51.984;9.838;2023-02-28T16:03:57;16.30;1.00
75821;DHT22;64454;51.984;9.838;2023-02-28T16:06:39;15.40;1.00
75821;DHT22;64454;51.984;9.838;2023-02-28T16:09:11;14.50;1.00
75821;DHT22;64454;51.984;9.838;2023-02-28T16:11:42;13.60;1.00
75821;DHT22;64454;51.984;9.838;2023-02-28T16:14:17;12.80;1.00
75821;DHT22;64454;51.984;9.838;2023-02-28T16:16:47;12.20;1.00
75821;DHT22;64454;51.984;9.838;2023-02-28T16:19:16;11.70;1.00
75821;DHT22;64454;51.984;9.838;2023-02-28T16:21:45;11.30;1.00
75821;DHT22;64454;51.984;9.838;2023-02-28T16:24:13;10.90;1.00
75821;DHT22;64454;51.984;9.838;2023-02-28T16:26:45;10.60;1.00
75821;DHT22;64454;51.984;9.838;2023-02-28T16:29:17;10.20;1.00
75821;DHT22;64454;51.984;9.838;2023-02-28T16:31:49;9.90;1.00
75821;DHT22;64454;51.984;9.838;2023-02-28T16:34:16;9.50;1.00
75821;DHT22;64454;51.984;9.838;2023-02-28T16:36:46;9.20;1.00
75821;DHT22;64454;51.984;9.838;2023-02-28T16:39:14;9.00;1.00
75821;DHT22;64454;51.984;9.838;2023-02-28T16:41:43;8.90;1.00